createdAt,value
2023-05-05T00:01:02.365Z,62.89
2023-05-05T00:03:30.168Z,63.38
2023-05-05T00:05:58.053Z,63.64
2023-05-05T00:08:25.833Z,63.31
2023-05-05T00:10:54.511Z,64.03
2023-05-05T00:13:22.303Z,63.97
2023-05-05T00:15:53.503Z,64.41
2023-05-05T00:18:21.456Z,64.29
2023-05-05T00:20:49.590Z,64.41
2023-05-05T00:23:19.205Z,64.54
2023-05-05T00:25:47.307Z,64.81
2023-05-05T00:28:14.876Z,65.05
2023-05-05T00:30:42.481Z,64.94
2023-05-05T00:33:11.154Z,64.96
2023-05-05T00:35:38.775Z,65.17
2023-05-05T00:38:07.250Z,65.33
2023-05-05T00:40:35.181Z,65.39
2023-05-05T00:43:02.921Z,65.60
2023-05-05T00:45:30.967Z,66.01
2023-05-05T00:48:00.855Z,66.31
2023-05-05T00:50:31.167Z,66.19
2023-05-05T00:53:06.489Z,66.82
2023-05-05T00:55:35.357Z,67.32
2023-05-05T00:58:04.408Z,68.23
2023-05-05T01:00:32.652Z,68.76
2023-05-05T01:03:00.599Z,69.16
2023-05-05T01:05:51.575Z,70.57
2023-05-05T01:08:41.114Z,71.31
2023-05-05T01:11:26.301Z,72.10
2023-05-05T01:14:32.089Z,72.13
2023-05-05T01:17:25.852Z,73.32
2023-05-05T01:20:10.525Z,73.66
2023-05-05T01:22:51.023Z,74.31
2023-05-05T01:26:05.600Z,74.32
2023-05-05T01:29:03.024Z,73.71
2023-05-05T01:31:52.278Z,74.04
2023-05-05T01:34:28.827Z,74.01
2023-05-05T01:37:19.040Z,74.24
2023-05-05T01:39:55.854Z,75.13
2023-05-05T01:42:26.739Z,74.53
2023-05-05T01:44:56.483Z,74.69
2023-05-05T01:47:25.517Z,74.71
2023-05-05T01:49:53.866Z,74.57
2023-05-05T01:52:24.237Z,74.72
2023-05-05T01:54:53.409Z,74.73
2023-05-05T01:57:26.476Z,74.92
2023-05-05T01:59:56.822Z,74.97
2023-05-05T02:02:28.972Z,75.22
2023-05-05T02:04:59.208Z,74.96
2023-05-05T02:07:28.239Z,75.27
2023-05-05T02:09:56.681Z,75.35
2023-05-05T02:12:25.467Z,75.52
2023-05-05T02:14:54.466Z,75.65
2023-05-05T02:17:24.058Z,75.85
2023-05-05T02:19:53.490Z,75.61
2023-05-05T02:22:21.089Z,75.70
2023-05-05T02:24:48.837Z,75.77
2023-05-05T02:27:21.609Z,75.90
2023-05-05T02:29:53.230Z,75.94
2023-05-05T02:32:32.452Z,76.08
2023-05-05T02:35:15.659Z,76.00
2023-05-05T02:37:56.765Z,76.27
2023-05-05T02:40:30.467Z,76.53
2023-05-05T02:43:04.753Z,76.67
2023-05-05T02:45:32.563Z,77.16
2023-05-05T02:48:05.151Z,77.31
2023-05-05T02:50:37.550Z,77.18
2023-05-05T02:53:27.124Z,77.57
2023-05-05T02:56:08.144Z,77.45
2023-05-05T02:58:53.118Z,77.43
2023-05-05T03:01:36.278Z,77.57
2023-05-05T03:04:14.674Z,77.30
2023-05-05T03:06:53.651Z,77.50
2023-05-05T03:09:39.806Z,77.69
2023-05-05T03:12:13.617Z,78.04
2023-05-05T03:15:00.746Z,78.16
2023-05-05T03:17:32.684Z,78.47
2023-05-05T03:20:03.405Z,78.48
2023-05-05T03:22:37.814Z,78.76
2023-05-05T03:25:08.080Z,79.20
2023-05-05T03:27:35.671Z,79.17
2023-05-05T03:30:03.825Z,79.89
2023-05-05T03:32:33.261Z,80.29
2023-05-05T03:35:01.019Z,80.11
2023-05-05T03:37:32.800Z,80.43
2023-05-05T03:40:00.739Z,80.36
2023-05-05T03:42:28.662Z,80.52
2023-05-05T03:44:57.169Z,80.50
2023-05-05T03:47:25.689Z,80.81
2023-05-05T03:49:54.602Z,80.70
2023-05-05T03:52:22.281Z,80.82
2023-05-05T03:54:50.001Z,81.10
2023-05-05T03:57:17.573Z,81.60
2023-05-05T03:59:45.106Z,81.58
2023-05-05T04:02:13.414Z,81.75
2023-05-05T04:04:41.231Z,81.45
2023-05-05T04:07:09.014Z,81.55
2023-05-05T04:09:37.300Z,81.85
2023-05-05T04:12:06.112Z,81.89
2023-05-05T04:14:34.012Z,81.74
2023-05-05T04:17:02.120Z,82.30
2023-05-05T04:19:33.775Z,82.24
2023-05-05T04:22:03.257Z,81.94
2023-05-05T04:24:31.323Z,82.29
2023-05-05T04:26:59.655Z,82.39
2023-05-05T04:29:27.982Z,82.38
2023-05-05T04:31:56.804Z,82.32
2023-05-05T04:34:24.847Z,82.52
2023-05-05T04:36:52.717Z,82.45
2023-05-05T04:39:21.624Z,82.51
2023-05-05T04:41:50.105Z,82.65
2023-05-05T04:44:17.736Z,82.73
2023-05-05T04:46:45.719Z,82.93
2023-05-05T04:49:13.245Z,82.82
2023-05-05T04:51:42.346Z,83.29
2023-05-05T04:54:09.982Z,83.16
2023-05-05T04:56:37.729Z,83.46
2023-05-05T04:59:05.333Z,83.62
2023-05-05T05:01:33.044Z,83.67
2023-05-05T05:04:00.835Z,84.10
2023-05-05T05:06:29.356Z,84.22
2023-05-05T05:08:57.092Z,84.46
2023-05-05T05:11:24.738Z,84.24
2023-05-05T05:13:53.101Z,84.67
2023-05-05T05:16:21.524Z,84.57
2023-05-05T05:18:49.365Z,84.80
2023-05-05T05:21:17.040Z,84.71
2023-05-05T05:23:44.847Z,84.78
2023-05-05T05:26:12.607Z,84.79
2023-05-05T05:28:41.603Z,84.83
2023-05-05T05:31:09.159Z,85.04
2023-05-05T05:33:36.856Z,84.94
2023-05-05T05:36:05.736Z,85.24
2023-05-05T05:38:33.499Z,85.44
2023-05-05T05:41:09.659Z,85.39
2023-05-05T05:43:38.561Z,85.49
2023-05-05T05:46:08.907Z,85.37
2023-05-05T05:48:38.229Z,85.48
2023-05-05T05:51:05.964Z,85.66
2023-05-05T05:53:37.441Z,85.60
2023-05-05T05:56:05.560Z,84.50
2023-05-05T05:58:33.161Z,85.35
2023-05-05T06:01:00.823Z,85.51
2023-05-05T06:03:29.838Z,86.02
2023-05-05T06:05:58.975Z,85.80
2023-05-05T06:08:26.976Z,86.04
2023-05-05T06:10:56.253Z,85.91
2023-05-05T06:13:24.391Z,85.84
2023-05-05T06:15:53.545Z,85.82
2023-05-05T06:18:21.267Z,86.25
2023-05-05T06:20:50.908Z,86.08
2023-05-05T06:23:19.782Z,85.99
2023-05-05T06:25:54.809Z,85.96
2023-05-05T06:28:22.648Z,86.00
2023-05-05T06:30:50.218Z,85.86
2023-05-05T06:33:17.768Z,85.90
2023-05-05T06:35:45.699Z,85.63
2023-05-05T06:38:13.292Z,85.62
2023-05-05T06:40:40.860Z,85.52
2023-05-05T06:43:08.432Z,85.03
2023-05-05T06:45:43.870Z,84.80
2023-05-05T06:48:12.391Z,84.48
2023-05-05T06:50:40.088Z,84.03
2023-05-05T06:53:12.132Z,83.55
2023-05-05T06:55:45.758Z,82.92
2023-05-05T06:58:13.393Z,82.07
2023-05-05T07:00:41.194Z,81.65
2023-05-05T07:03:08.965Z,81.28
2023-05-05T07:05:36.843Z,80.93
2023-05-05T07:08:04.544Z,80.68
2023-05-05T07:10:33.075Z,80.38
2023-05-05T07:13:01.046Z,79.50
2023-05-05T07:15:29.784Z,78.88
2023-05-05T07:17:57.943Z,78.30
2023-05-05T07:20:25.982Z,77.63
2023-05-05T07:22:53.554Z,77.46
2023-05-05T07:25:21.503Z,76.70
2023-05-05T07:27:49.122Z,76.46
2023-05-05T07:30:18.690Z,76.01
2023-05-05T07:32:47.095Z,75.50
2023-05-05T07:35:14.743Z,75.07
2023-05-05T07:37:42.467Z,75.07
2023-05-05T07:40:10.900Z,74.52
2023-05-05T07:42:38.972Z,74.08
2023-05-05T07:45:07.451Z,73.80
2023-05-05T07:47:35.077Z,72.47
2023-05-05T07:50:02.714Z,72.33
2023-05-05T07:52:44.258Z,71.73
2023-05-05T07:55:15.842Z,70.77
2023-05-05T07:57:43.577Z,70.57
2023-05-05T08:00:13.413Z,70.73
2023-05-05T08:02:41.465Z,69.86
2023-05-05T08:05:09.810Z,69.09
2023-05-05T08:07:41.184Z,68.22
2023-05-05T08:10:11.873Z,68.69
2023-05-05T08:12:40.496Z,68.18
2023-05-05T08:15:08.955Z,66.19
2023-05-05T08:17:52.025Z,64.52
2023-05-05T08:20:21.082Z,64.59
2023-05-05T08:22:49.680Z,63.67
2023-05-05T08:25:17.342Z,63.64
2023-05-05T08:27:44.973Z,63.34
2023-05-05T08:30:13.217Z,63.33
2023-05-05T08:32:40.895Z,62.62
2023-05-05T08:35:09.189Z,61.88
2023-05-05T08:37:37.033Z,60.64
2023-05-05T08:40:06.173Z,60.21
2023-05-05T08:42:38.678Z,59.99
2023-05-05T08:45:09.982Z,58.96
2023-05-05T08:47:39.600Z,58.60
2023-05-05T08:50:11.480Z,59.66
2023-05-05T08:52:44.331Z,58.40
2023-05-05T08:55:27.764Z,58.08
2023-05-05T08:57:58.036Z,58.38
2023-05-05T09:00:27.773Z,58.71
2023-05-05T09:03:01.363Z,57.36
2023-05-05T09:05:29.215Z,58.16
2023-05-05T09:07:56.941Z,56.51
2023-05-05T09:10:26.172Z,55.67
2023-05-05T09:12:54.249Z,56.47
2023-05-05T09:15:21.864Z,56.08
2023-05-05T09:17:49.477Z,56.31
2023-05-05T09:20:17.134Z,56.67
2023-05-05T09:22:47.651Z,56.49
2023-05-05T09:25:18.316Z,56.58
2023-05-05T09:27:49.223Z,56.92
2023-05-05T09:30:24.388Z,56.39
2023-05-05T09:32:54.699Z,56.42
2023-05-05T09:35:23.485Z,56.68
2023-05-05T09:37:51.056Z,56.41
2023-05-05T09:40:22.034Z,56.54
2023-05-05T09:43:01.866Z,56.07
2023-05-05T09:45:29.450Z,55.81
2023-05-05T09:48:00.163Z,56.11
2023-05-05T09:50:30.947Z,56.12
2023-05-05T09:53:02.111Z,56.25
2023-05-05T09:55:33.566Z,55.83
2023-05-05T09:58:23.662Z,56.03
2023-05-05T10:00:52.255Z,55.51
2023-05-05T10:03:20.850Z,55.12
2023-05-05T10:06:00.974Z,55.12
2023-05-05T10:08:33.485Z,54.39
2023-05-05T10:11:07.247Z,55.12
2023-05-05T10:13:37.929Z,55.39
2023-05-05T10:16:13.254Z,55.85
2023-05-05T10:18:46.522Z,55.73
2023-05-05T10:21:21.416Z,55.82
2023-05-05T10:24:00.351Z,55.95
2023-05-05T10:26:34.334Z,55.93
2023-05-05T10:29:07.958Z,56.33
2023-05-05T10:31:49.221Z,56.77
2023-05-05T10:34:30.080Z,57.37
2023-05-05T10:37:00.170Z,57.39
2023-05-05T10:39:29.014Z,57.22
2023-05-05T10:42:03.976Z,57.19
2023-05-05T10:44:33.185Z,56.99
2023-05-05T10:47:02.266Z,56.30
2023-05-05T10:49:48.924Z,56.92
2023-05-05T10:52:42.892Z,57.15
2023-05-05T10:55:21.362Z,57.32
2023-05-05T10:57:53.606Z,57.14
2023-05-05T11:00:39.616Z,57.76
2023-05-05T11:03:16.210Z,57.58
2023-05-05T11:06:05.795Z,58.19
2023-05-05T11:08:39.323Z,58.37
2023-05-05T11:11:07.671Z,58.75
2023-05-05T11:13:35.225Z,58.77
2023-05-05T11:16:03.216Z,59.43
2023-05-05T11:18:37.680Z,60.94
2023-05-05T11:21:17.245Z,62.80
2023-05-05T11:23:45.599Z,65.05
2023-05-05T11:26:14.977Z,66.86
2023-05-05T11:29:03.959Z,68.40
2023-05-05T11:31:33.470Z,70.36
2023-05-05T11:34:28.436Z,71.91
2023-05-05T11:37:03.290Z,74.05
2023-05-05T11:40:03.129Z,75.18
2023-05-05T11:42:30.928Z,77.35
2023-05-05T11:44:59.218Z,79.52
2023-05-05T11:47:29.486Z,80.61
2023-05-05T11:49:57.847Z,80.35
2023-05-05T11:52:27.210Z,81.63
2023-05-05T11:55:01.453Z,83.28
2023-05-05T11:57:30.450Z,83.60
2023-05-05T12:00:04.963Z,84.45
2023-05-05T12:02:56.910Z,84.82
2023-05-05T12:05:24.872Z,86.18
2023-05-05T12:07:57.926Z,86.24
2023-05-05T12:10:25.814Z,87.17
2023-05-05T12:12:56.457Z,87.73
2023-05-05T12:15:32.439Z,88.34
2023-05-05T12:18:02.412Z,88.45
2023-05-05T12:20:33.314Z,89.16
2023-05-05T12:23:03.128Z,89.68
2023-05-05T12:25:36.878Z,90.26
2023-05-05T12:28:09.007Z,90.54
2023-05-05T12:30:37.197Z,90.94
2023-05-05T12:33:08.225Z,91.60
2023-05-05T12:35:37.076Z,91.88
2023-05-05T12:38:04.754Z,92.09
2023-05-05T12:40:53.783Z,92.74
2023-05-05T12:43:30.483Z,92.38
2023-05-05T12:46:07.141Z,92.20
2023-05-05T12:48:38.066Z,92.21
2023-05-05T12:51:23.613Z,91.87
2023-05-05T12:54:11.523Z,92.20
2023-05-05T12:56:45.541Z,92.34
2023-05-05T12:59:33.365Z,92.96
2023-05-05T13:02:03.715Z,92.99
2023-05-05T13:04:32.827Z,93.23
2023-05-05T13:07:13.166Z,93.59
2023-05-05T13:09:41.544Z,93.26
2023-05-05T13:12:12.091Z,93.77
2023-05-05T13:14:41.493Z,93.79
2023-05-05T13:17:10.892Z,93.93
2023-05-05T13:19:42.558Z,94.11
2023-05-05T13:22:10.319Z,94.09
2023-05-05T13:24:50.943Z,94.22
2023-05-05T13:27:20.657Z,94.27
2023-05-05T13:29:48.492Z,94.32
2023-05-05T13:32:16.129Z,95.10
2023-05-05T13:34:44.155Z,94.81
2023-05-05T13:37:11.862Z,95.18
2023-05-05T13:39:39.435Z,95.36
2023-05-05T13:42:06.975Z,95.40
2023-05-05T13:44:35.378Z,95.48
2023-05-05T13:47:04.525Z,95.36
2023-05-05T13:49:32.114Z,95.38
2023-05-05T13:51:59.718Z,95.99
2023-05-05T13:54:28.119Z,96.55
2023-05-05T13:56:55.702Z,96.86
2023-05-05T13:59:23.303Z,97.45
2023-05-05T14:01:50.854Z,98.39
2023-05-05T14:04:27.881Z,98.48
2023-05-05T14:06:58.134Z,98.76
2023-05-05T14:09:26.891Z,99.25
2023-05-05T14:11:54.472Z,99.24
2023-05-05T14:14:22.024Z,99.55
2023-05-05T14:16:50.372Z,100.00
2023-05-05T14:19:18.187Z,100.00
2023-05-05T14:21:45.999Z,100.00
2023-05-05T14:24:13.544Z,100.00
2023-05-05T14:26:41.133Z,100.00
2023-05-05T14:29:08.821Z,100.00
2023-05-05T14:31:36.760Z,100.00
2023-05-05T14:34:04.365Z,100.00
2023-05-05T14:36:32.020Z,100.00
2023-05-05T14:38:59.649Z,100.00
2023-05-05T14:41:27.175Z,99.33
2023-05-05T14:43:54.752Z,97.82
2023-05-05T14:46:22.588Z,96.45
2023-05-05T14:48:50.366Z,94.82
2023-05-05T14:51:18.002Z,93.39
2023-05-05T14:53:45.785Z,93.16
2023-05-05T14:56:13.857Z,92.00
2023-05-05T14:58:41.730Z,91.74
2023-05-05T15:01:09.814Z,91.38
2023-05-05T15:03:37.581Z,91.94
2023-05-05T15:06:05.553Z,91.51
2023-05-05T15:08:33.190Z,91.82
2023-05-05T15:11:01.176Z,91.39
2023-05-05T15:13:29.717Z,90.61
2023-05-05T15:15:57.353Z,90.69
2023-05-05T15:18:25.055Z,90.73
2023-05-05T15:20:52.640Z,91.20
2023-05-05T15:23:20.199Z,90.90
2023-05-05T15:25:47.763Z,90.67
2023-05-05T15:28:15.467Z,90.56
2023-05-05T15:30:43.071Z,89.78
2023-05-05T15:33:10.699Z,89.64
2023-05-05T15:35:38.463Z,90.78
2023-05-05T15:38:06.268Z,90.28
2023-05-05T15:40:33.922Z,89.59
2023-05-05T15:43:01.593Z,88.89
2023-05-05T15:45:29.117Z,88.55
2023-05-05T15:47:56.745Z,87.93
2023-05-05T15:50:24.384Z,87.92
2023-05-05T15:52:52.019Z,87.85
2023-05-05T15:55:19.574Z,88.63
2023-05-05T15:57:47.114Z,88.28
2023-05-05T16:00:15.234Z,87.62
2023-05-05T16:02:42.865Z,87.97
2023-05-05T16:05:11.047Z,87.33
2023-05-05T16:07:39.454Z,86.61
2023-05-05T16:10:08.278Z,85.89
2023-05-05T16:12:35.841Z,85.34
2023-05-05T16:15:03.499Z,84.76
2023-05-05T16:17:31.235Z,84.57
2023-05-05T16:19:58.970Z,84.20
2023-05-05T16:22:26.773Z,83.27
2023-05-05T16:24:54.346Z,82.96
2023-05-05T16:27:22.340Z,82.60
2023-05-05T16:29:49.898Z,82.74
2023-05-05T16:32:17.428Z,82.79
2023-05-05T16:34:45.230Z,82.30
2023-05-05T16:37:13.291Z,81.98
2023-05-05T16:39:41.526Z,81.25
2023-05-05T16:42:09.084Z,81.28
2023-05-05T16:44:36.667Z,79.41
2023-05-05T16:47:04.469Z,79.64
2023-05-05T16:49:31.995Z,80.23
2023-05-05T16:51:59.587Z,80.29
2023-05-05T16:54:27.131Z,79.28
2023-05-05T16:56:55.122Z,79.14
2023-05-05T16:59:22.697Z,79.11
2023-05-05T17:01:50.380Z,78.95
2023-05-05T17:04:17.924Z,79.69
2023-05-05T17:06:45.986Z,77.95
2023-05-05T17:09:13.583Z,78.06
2023-05-05T17:11:41.102Z,78.76
2023-05-05T17:14:08.731Z,77.67
2023-05-05T17:16:36.905Z,77.91
2023-05-05T17:19:04.534Z,78.64
2023-05-05T17:21:32.821Z,77.45
2023-05-05T17:24:01.394Z,77.15
2023-05-05T17:26:30.724Z,76.49
2023-05-05T17:28:58.240Z,76.76
2023-05-05T17:31:26.010Z,77.96
2023-05-05T17:33:53.665Z,78.35
2023-05-05T17:36:21.214Z,78.25
2023-05-05T17:38:48.737Z,77.04
2023-05-05T17:41:16.641Z,76.95
2023-05-05T17:43:44.395Z,76.56
2023-05-05T17:46:12.052Z,77.16
2023-05-05T17:48:39.626Z,77.30
2023-05-05T17:51:07.219Z,76.10
2023-05-05T17:53:34.842Z,76.39
2023-05-05T17:56:02.566Z,76.62
2023-05-05T17:58:30.245Z,77.01
2023-05-05T18:00:57.826Z,77.46
2023-05-05T18:03:25.556Z,78.10
2023-05-05T18:05:53.121Z,78.04
2023-05-05T18:08:20.759Z,78.23
2023-05-05T18:10:48.335Z,78.65
2023-05-05T18:13:15.943Z,78.58
2023-05-05T18:15:43.616Z,78.97
2023-05-05T18:18:11.249Z,78.95
2023-05-05T18:20:38.816Z,79.21
2023-05-05T18:23:06.389Z,79.41
2023-05-05T18:25:33.985Z,79.57
2023-05-05T18:28:01.523Z,79.92
2023-05-05T18:30:29.169Z,79.83
2023-05-05T18:32:56.831Z,80.25
2023-05-05T18:35:24.529Z,80.35
2023-05-05T18:37:52.392Z,80.51
2023-05-05T18:40:19.929Z,80.49
2023-05-05T18:42:47.492Z,81.04
2023-05-05T18:45:15.349Z,81.23
2023-05-05T18:47:42.968Z,81.69
2023-05-05T18:50:10.773Z,81.82
2023-05-05T18:52:41.021Z,82.16
2023-05-05T18:55:09.036Z,82.24
2023-05-05T18:57:36.700Z,82.62
2023-05-05T19:00:04.882Z,82.42
2023-05-05T19:02:32.521Z,82.75
2023-05-05T19:05:00.201Z,82.96
2023-05-05T19:07:35.323Z,83.13
2023-05-05T19:10:05.055Z,83.50
2023-05-05T19:12:32.928Z,83.65
2023-05-05T19:15:01.289Z,83.37
2023-05-05T19:17:28.885Z,83.62
2023-05-05T19:19:56.478Z,83.91
2023-05-05T19:22:24.084Z,84.23
2023-05-05T19:24:51.672Z,84.54
2023-05-05T19:27:19.264Z,84.85
2023-05-05T19:29:51.986Z,85.01
2023-05-05T19:32:21.603Z,85.45
2023-05-05T19:34:49.299Z,85.67
2023-05-05T19:37:16.840Z,86.54
2023-05-05T19:39:45.673Z,86.27
2023-05-05T19:42:14.490Z,86.93
2023-05-05T19:44:42.417Z,87.50
2023-05-05T19:47:10.952Z,87.82
2023-05-05T19:49:38.873Z,88.30
2023-05-05T19:52:06.430Z,88.51
2023-05-05T19:54:34.049Z,88.46
2023-05-05T19:57:01.945Z,88.62
2023-05-05T19:59:29.580Z,88.52
2023-05-05T20:01:57.253Z,88.91
2023-05-05T20:04:25.456Z,89.24
2023-05-05T20:06:53.069Z,89.29
2023-05-05T20:09:20.589Z,89.89
2023-05-05T20:11:48.116Z,90.14
2023-05-05T20:14:15.776Z,91.07
2023-05-05T20:16:43.324Z,91.04
2023-05-05T20:19:10.929Z,91.32
2023-05-05T20:21:38.467Z,91.32
2023-05-05T20:24:07.421Z,91.32
2023-05-05T20:26:34.960Z,91.43
2023-05-05T20:29:03.005Z,91.62
2023-05-05T20:31:30.983Z,91.82
2023-05-05T20:33:58.507Z,92.36
2023-05-05T20:36:26.713Z,92.24
2023-05-05T20:38:54.393Z,92.36
2023-05-05T20:41:22.104Z,92.38
2023-05-05T20:43:49.746Z,92.59
2023-05-05T20:46:17.563Z,92.86
2023-05-05T20:48:45.173Z,92.70
2023-05-05T20:51:12.865Z,93.01
2023-05-05T20:53:40.636Z,93.35
2023-05-05T20:56:09.114Z,93.86
2023-05-05T20:58:36.943Z,93.86
2023-05-05T21:01:04.597Z,94.16
2023-05-05T21:03:32.228Z,94.15
2023-05-05T21:05:59.912Z,94.33
2023-05-05T21:08:29.099Z,94.21
2023-05-05T21:10:56.625Z,94.16
2023-05-05T21:13:24.449Z,94.23
2023-05-05T21:15:52.182Z,94.59
2023-05-05T21:18:19.762Z,95.02
2023-05-05T21:20:47.368Z,94.86
2023-05-05T21:23:14.977Z,95.37
2023-05-05T21:25:42.517Z,95.30
2023-05-05T21:28:10.075Z,95.48
2023-05-05T21:30:38.105Z,95.09
2023-05-05T21:33:05.771Z,95.37
2023-05-05T21:35:33.397Z,95.42
2023-05-05T21:38:01.402Z,95.92
2023-05-05T21:40:29.053Z,96.16
2023-05-05T21:42:56.578Z,96.30
2023-05-05T21:45:24.065Z,96.74
2023-05-05T21:47:51.650Z,97.03
2023-05-05T21:50:19.674Z,97.31
2023-05-05T21:52:47.361Z,97.64
2023-05-05T21:55:15.083Z,97.84
2023-05-05T21:57:42.610Z,98.13
2023-05-05T22:00:16.519Z,98.27
2023-05-05T22:02:45.424Z,98.42
2023-05-05T22:05:13.398Z,98.90
2023-05-05T22:07:41.012Z,99.45
2023-05-05T22:10:09.341Z,99.83
2023-05-05T22:12:37.150Z,99.97
2023-05-05T22:15:05.636Z,100.00
2023-05-05T22:17:33.250Z,100.00
2023-05-05T22:20:00.809Z,100.00
2023-05-05T22:22:28.351Z,100.00
2023-05-05T22:24:56.119Z,100.00
2023-05-05T22:27:23.843Z,100.00
2023-05-05T22:29:51.499Z,100.00
2023-05-05T22:32:20.452Z,100.00
2023-05-05T22:34:48.393Z,100.00
2023-05-05T22:37:16.200Z,100.00
2023-05-05T22:39:43.941Z,100.00
2023-05-05T22:42:11.790Z,100.00
2023-05-05T22:44:39.429Z,100.00
2023-05-05T22:47:07.099Z,100.00
2023-05-05T22:49:35.122Z,100.00
2023-05-05T22:52:02.745Z,100.00
2023-05-05T22:54:30.304Z,100.00
2023-05-05T22:56:57.887Z,100.00
2023-05-05T22:59:25.549Z,100.00
2023-05-05T23:01:53.104Z,100.00
2023-05-05T23:04:20.738Z,100.00
2023-05-05T23:06:48.404Z,100.00
2023-05-05T23:09:15.934Z,100.00
2023-05-05T23:11:43.467Z,100.00
2023-05-05T23:14:11.105Z,100.00
2023-05-05T23:16:38.677Z,100.00
2023-05-05T23:19:06.227Z,100.00
2023-05-05T23:21:38.936Z,100.00
2023-05-05T23:24:13.234Z,100.00
2023-05-05T23:26:40.891Z,100.00
2023-05-05T23:29:08.413Z,100.00
2023-05-05T23:31:35.940Z,100.00
2023-05-05T23:34:03.469Z,100.00
2023-05-05T23:36:31.167Z,100.00
2023-05-05T23:38:58.878Z,100.00
2023-05-05T23:41:26.389Z,100.00
2023-05-05T23:43:54.046Z,100.00
2023-05-05T23:46:21.693Z,100.00
2023-05-05T23:48:50.402Z,100.00
2023-05-05T23:51:18.030Z,100.00
2023-05-05T23:53:45.650Z,100.00
2023-05-05T23:56:13.272Z,100.00
2023-05-05T23:58:40.799Z,100.00
